Adelanto, California
Current Conditions -  °F | °C
As of 12:35 PM on Thursday 27 Nov 2014 (Local Time) from KVCV Reporting Station
Scattered Clouds Scattered Clouds  
Wind Chill: 68°   Ceiling: Unl
Heat Index: 68°   Visibility: 10mi
Dew Point: 12°   Wind: 6mph
Humidity: 12%   Direction: 10°N
Pressure: 30.22"   Gusts: NA
Location:  34.58°N, 117.41°W
Report Text: KVCV 272035Z AUTO 01005KT 10SM SCT110 20/M11 A3022 RMK AO2
Loading
Personal Weather Stations






























Interactive Weather Map New forecast layout! Learn more

10-Day Weather Forecast

Advertisements
Track Severe Weather on mobile